Time;durP1;ratioP1;P1;durP2;ratioP2;P2;SDS_P1;SDS_P2;PMS_P1;PMS_P2;Temp;Humidity;BMP_temperature;BMP_pressure;BME280_temperature;BME280_humidity;BME280_pressure;Samples;Min_cycle;Max_cycle;Signal;HPM_P1;HPM_P2
2022/08/16 00:00:58;;;;;;;25.23;17.55;;;;;;;16.78;96.29;97124.44;10255678;28;20084;-58
2022/08/16 00:05:57;;;;;;;25.20;17.00;;;;;;;16.63;96.86;97116.25;10255839;28;20092;-57
2022/08/16 00:10:56;;;;;;;24.50;16.25;;;;;;;16.55;96.86;97125.25;10255314;28;20366;-57
2022/08/16 00:15:55;;;;;;;23.95;17.33;;;;;;;16.50;96.86;97128.88;10255653;28;20073;-57
2022/08/16 00:20:55;;;;;;;23.48;17.40;;;;;;;16.48;96.98;97129.84;10255246;28;20018;-57
2022/08/16 00:25:54;;;;;;;26.63;17.02;;;;;;;16.44;96.89;97129.13;10253397;28;20073;-57
2022/08/16 00:30:52;;;;;;;26.70;18.23;;;;;;;16.42;97.06;97125.69;10268520;28;20030;-57
2022/08/16 00:35:51;;;;;;;;;;;;;;;16.39;97.29;97125.78;10291283;28;20050;-57
2022/08/16 00:40:53;;;;;;;26.25;17.63;;;;;;;16.38;97.30;97123.22;10256082;28;20299;-57
2022/08/16 00:46:17;;;;;;;30.63;19.38;;;;;;;16.33;97.59;97119.94;10254876;28;20116;-57
2022/08/16 00:51:20;;;;;;;26.10;18.15;;;;;;;16.32;97.66;97119.03;10253638;28;20066;-57
2022/08/16 00:56:23;;;;;;;28.13;19.05;;;;;;;16.27;97.73;97113.97;10254126;28;20443;-57
2022/08/16 01:01:22;;;;;;;28.40;18.85;;;;;;;16.22;97.87;97112.41;10253488;28;20069;-57
2022/08/16 01:06:21;;;;;;;28.20;18.00;;;;;;;16.26;97.96;97120.13;10253649;28;20069;-57
2022/08/16 01:11:22;;;;;;;;;;;;;;;16.25;98.16;97128.00;10252915;28;20447;-57
2022/08/16 01:16:24;;;;;;;26.95;17.77;;;;;;;16.23;98.27;97132.44;10252305;28;19953;-57
2022/08/16 01:21:51;;;;;;;24.35;17.23;;;;;;;16.25;98.02;97138.50;10252272;28;20061;-57
2022/08/16 01:26:55;;;;;;;28.83;16.65;;;;;;;16.11;98.76;97136.31;10252090;28;20126;-57
2022/08/16 01:31:54;;;;;;;22.77;16.70;;;;;;;16.07;98.92;97139.97;10273334;28;20054;-57
2022/08/16 01:37:12;;;;;;;31.15;17.85;;;;;;;16.07;98.69;97153.06;10281801;28;20092;-57
2022/08/16 01:42:11;;;;;;;26.42;17.88;;;;;;;15.95;98.94;97158.66;10273096;28;20061;-57
2022/08/16 01:47:10;;;;;;;;;;;;;;;15.94;98.68;97160.44;10252944;28;20058;-57
2022/08/16 01:52:12;;;;;;;27.60;17.77;;;;;;;15.92;98.77;97166.63;10251619;28;20292;-57
2022/08/16 01:57:11;;;;;;;26.98;18.15;;;;;;;15.79;99.55;97171.41;10251393;28;20062;-57
2022/08/16 02:02:10;;;;;;;28.08;18.42;;;;;;;15.75;99.54;97169.75;10251564;28;20065;-57
2022/08/16 02:07:09;;;;;;;;;;;;;;;15.71;99.53;97173.34;10253959;28;20041;-57
2022/08/16 02:12:09;;;;;;;25.73;17.90;;;;;;;15.71;99.46;97174.19;10291697;28;19914;-57
2022/08/16 02:17:11;;;;;;;32.55;19.15;;;;;;;15.72;99.52;97172.47;10276722;28;20062;-57
2022/08/16 02:22:14;;;;;;;28.30;19.05;;;;;;;15.71;99.50;97173.34;10252044;28;20519;-57
2022/08/16 02:27:13;;;;;;;28.90;19.05;;;;;;;15.68;99.74;97166.47;10248186;28;20068;-57
2022/08/16 02:32:15;;;;;;;27.45;19.02;;;;;;;15.66;99.67;97176.97;10258703;28;20070;-57
2022/08/16 02:37:14;;;;;;;28.95;19.10;;;;;;;15.70;99.58;97161.19;10274309;28;20104;-57
2022/08/16 02:42:13;;;;;;;;;;;;;;;15.68;99.64;97169.94;10272771;28;20053;-57
2022/08/16 02:47:11;;;;;;;30.52;19.42;;;;;;;15.68;99.87;97180.38;10259216;28;19910;-57
2022/08/16 02:52:11;;;;;;;;;;;;;;;15.70;99.91;97182.13;10258642;28;20527;-57
2022/08/16 02:57:10;;;;;;;32.67;20.23;;;;;;;15.70;100.00;97196.03;10259096;28;20441;-57
2022/08/16 03:02:10;;;;;;;34.92;21.83;;;;;;;15.67;100.00;97191.78;10274072;28;20068;-58
2022/08/16 03:07:10;;;;;;;36.85;24.83;;;;;;;15.59;100.00;97183.28;10264304;28;20088;-57
2022/08/16 03:12:09;;;;;;;33.90;22.52;;;;;;;15.58;100.00;97176.34;10257465;28;20062;-57
2022/08/16 03:17:08;;;;;;;;;;;;;;;15.59;100.00;97185.91;10257906;28;20027;-57
2022/08/16 03:22:06;;;;;;;34.13;21.33;;;;;;;15.66;100.00;97174.34;10257169;28;19909;-57
2022/08/16 03:27:05;;;;;;;;;;;;;;;15.74;100.00;97168.03;10258334;28;20038;-57
2022/08/16 03:32:06;;;;;;;33.20;20.17;;;;;;;15.79;100.00;97168.78;10280280;28;20457;-57
2022/08/16 03:37:05;;;;;;;;;;;;;;;15.88;100.00;97158.88;10296250;28;20545;-57
2022/08/16 03:42:04;;;;;;;27.47;19.20;;;;;;;15.89;100.00;97164.97;10271152;28;20339;-57
2022/08/16 03:47:03;;;;;;;25.23;18.05;;;;;;;15.96;100.00;97160.41;10255849;28;20077;-57
2022/08/16 03:52:03;;;;;;;;;;;;;;;16.04;100.00;97167.09;10256762;28;20078;-57
2022/08/16 03:57:03;;;;;;;29.27;16.53;;;;;;;16.04;100.00;97169.72;10260716;28;19949;-57
2022/08/16 04:02:03;;;;;;;21.55;14.98;;;;;;;15.82;99.44;97181.75;10291684;28;20874;-57
2022/08/16 04:07:04;;;;;;;21.35;15.35;;;;;;;15.71;99.61;97183.81;10273050;28;20073;-57
2022/08/16 04:12:05;;;;;;;20.45;16.25;;;;;;;15.87;98.85;97179.84;10214845;28;20069;-57
2022/08/16 04:17:04;;;;;;;22.13;14.32;;;;;;;16.08;98.41;97179.16;10214546;28;20073;-57
2022/08/16 04:22:03;;;;;;;;;;;;;;;16.27;97.92;97173.34;10228255;28;20054;-57
2022/08/16 04:27:03;;;;;;;20.03;16.07;;;;;;;16.38;97.80;97178.22;10252720;28;19921;-57
2022/08/16 04:32:03;;;;;;;21.73;16.15;;;;;;;16.51;97.11;97164.66;10232847;28;20058;-57
2022/08/16 04:37:03;;;;;;;23.27;15.82;;;;;;;16.46;96.93;97140.38;10227620;28;20082;-57
2022/08/16 04:42:03;;;;;;;21.40;15.73;;;;;;;16.72;96.92;97167.44;10277649;28;20061;-57
2022/08/16 04:47:02;;;;;;;21.38;15.75;;;;;;;16.73;96.47;97161.28;10291690;28;20069;-57
2022/08/16 04:52:01;;;;;;;21.23;15.77;;;;;;;16.78;96.23;97166.38;10290247;28;20038;-57
2022/08/16 04:56:59;;;;;;;;;;;;;;;16.96;95.64;97157.91;10289367;28;20036;-57
2022/08/16 05:01:58;;;;;;;24.27;16.33;;;;;;;17.15;95.45;97155.44;10287365;28;20019;-57
2022/08/16 05:06:57;;;;;;;;;;;;;;;17.36;95.16;97161.66;10288387;28;20037;-57
2022/08/16 05:11:56;;;;;;;24.23;15.37;;;;;;;17.60;94.74;97140.66;10288817;28;19917;-57
2022/08/16 05:16:55;;;;;;;21.38;16.08;;;;;;;17.87;94.08;97151.84;10254228;28;20496;-57
2022/08/16 05:21:54;;;;;;;19.42;15.10;;;;;;;18.12;93.22;97165.69;10250343;28;20420;-57
2022/08/16 05:26:53;;;;;;;24.42;16.10;;;;;;;18.15;91.18;97162.97;10250606;28;20069;-57
2022/08/16 05:31:52;;;;;;;21.23;15.15;;;;;;;17.90;92.21;97162.25;10245301;28;20027;-57
2022/08/16 05:36:54;;;;;;;23.67;16.05;;;;;;;17.76;92.75;97158.38;10248544;28;20448;-57
2022/08/16 05:41:54;;;;;;;28.20;16.67;;;;;;;17.73;93.34;97163.72;10246231;28;20111;-58
2022/08/16 05:46:55;;;;;;;23.27;17.00;;;;;;;17.76;93.64;97189.88;10248100;28;20058;-58
2022/08/16 05:51:54;;;;;;;21.85;17.40;;;;;;;17.98;93.29;97207.41;10247340;28;20480;-58
2022/08/16 05:56:55;;;;;;;24.02;17.92;;;;;;;18.19;92.91;97189.94;10248179;28;20080;-58
2022/08/16 06:01:54;;;;;;;29.45;18.17;;;;;;;18.50;92.85;97184.28;10238240;28;20085;-58
2022/08/16 06:06:53;;;;;;;24.17;17.17;;;;;;;18.78;92.37;97177.88;10240380;28;20059;-59
2022/08/16 06:11:53;;;;;;;27.42;16.23;;;;;;;19.12;91.97;97160.63;10223318;28;20066;-58
2022/08/16 06:16:52;;;;;;;20.25;14.63;;;;;;;19.40;90.17;97154.97;10238848;28;20085;-58
2022/08/16 06:21:51;;;;;;;20.15;14.05;;;;;;;19.74;89.31;97156.03;10248736;28;20066;-58
2022/08/16 06:26:50;;;;;;;16.40;12.85;;;;;;;20.13;87.76;97153.28;10244333;28;20042;-59
2022/08/16 06:31:49;;;;;;;17.45;12.60;;;;;;;20.53;84.33;97151.31;10239230;28;20546;-58
2022/08/16 06:36:48;;;;;;;16.13;11.60;;;;;;;21.04;82.10;97143.44;10232692;28;20389;-58
2022/08/16 06:41:47;;;;;;;13.90;10.90;;;;;;;21.44;78.88;97146.59;10229372;28;20038;-58
2022/08/16 06:46:46;;;;;;;14.77;10.05;;;;;;;21.93;75.22;97138.59;10228803;28;20074;-59
2022/08/16 06:51:45;;;;;;;10.63;8.05;;;;;;;22.36;69.30;97129.03;10244306;28;20046;-58
2022/08/16 06:56:45;;;;;;;9.90;7.50;;;;;;;22.80;65.52;97120.28;10247294;28;20077;-58
2022/08/16 07:01:44;;;;;;;9.35;7.05;;;;;;;23.12;61.32;97114.00;10248194;28;20038;-59
2022/08/16 07:06:43;;;;;;;8.30;6.07;;;;;;;23.55;56.59;97117.47;10246492;28;20124;-59
2022/08/16 07:11:43;;;;;;;8.45;6.43;;;;;;;23.87;54.78;97098.66;10249359;28;20108;-58
2022/08/16 07:16:42;;;;;;;8.27;5.65;;;;;;;24.22;54.83;97103.47;10248744;28;20078;-58
2022/08/16 07:21:41;;;;;;;10.07;6.47;;;;;;;24.44;51.31;97105.53;10231534;28;20102;-58
2022/08/16 07:26:40;;;;;;;7.65;6.15;;;;;;;24.70;51.50;97101.94;10250267;28;20527;-58
2022/08/16 07:31:39;;;;;;;7.53;5.68;;;;;;;24.97;49.70;97094.88;10255813;28;20480;-58
2022/08/16 07:36:40;;;;;;;8.82;5.78;;;;;;;25.27;48.58;97100.69;10254900;28;20088;-58
2022/08/16 07:41:40;;;;;;;8.68;5.63;;;;;;;25.56;46.73;97095.09;10256998;28;20080;-58
2022/08/16 07:46:39;;;;;;;6.57;5.10;;;;;;;25.80;45.98;97097.78;10256564;28;20069;-58
2022/08/16 07:51:39;;;;;;;10.38;7.22;;;;;;;25.98;44.78;97100.06;10254345;28;20134;-58
2022/08/16 07:56:38;;;;;;;6.32;5.00;;;;;;;26.22;43.29;97108.88;10254357;28;20065;-58
2022/08/16 08:01:38;;;;;;;6.40;5.20;;;;;;;26.36;41.45;97105.19;10255808;28;20073;-58
2022/08/16 08:06:38;;;;;;;5.95;4.60;;;;;;;26.60;41.75;97112.28;10254755;28;20061;-59
2022/08/16 08:11:37;;;;;;;13.55;8.07;;;;;;;26.77;41.63;97099.38;10250478;28;20079;-56
2022/08/16 08:16:36;;;;;;;10.13;6.60;;;;;;;26.99;41.00;97106.56;10254980;28;20150;-57
2022/08/16 08:21:35;;;;;;;9.05;5.90;;;;;;;27.13;39.44;97108.16;10254696;28;20033;-57
2022/08/16 08:26:35;;;;;;;7.20;4.82;;;;;;;27.30;38.15;97105.97;10254585;28;20074;-57
2022/08/16 08:31:39;;;;;;;4.93;3.72;;;;;;;27.36;37.33;97117.00;10253959;28;20109;-57
2022/08/16 08:36:38;;;;;;;4.35;3.53;;;;;;;27.49;35.26;97116.03;10252350;28;20074;-57
2022/08/16 08:41:37;;;;;;;4.38;3.42;;;;;;;27.68;34.35;97113.63;10254139;28;20026;-57
2022/08/16 08:46:37;;;;;;;7.70;4.22;;;;;;;27.87;33.80;97112.97;10253437;28;20069;-57
2022/08/16 08:51:37;;;;;;;5.97;4.03;;;;;;;28.07;34.58;97110.47;10211579;28;20098;-57
2022/08/16 08:56:36;;;;;;;6.28;4.75;;;;;;;28.33;35.90;97113.66;10223572;28;20473;-57
2022/08/16 09:01:36;;;;;;;5.72;4.38;;;;;;;28.44;35.21;97108.28;10250314;28;20064;-57
2022/08/16 09:06:37;;;;;;;8.77;4.47;;;;;;;28.55;35.19;97110.91;10246024;28;20121;-57
2022/08/16 09:11:37;;;;;;;6.80;4.82;;;;;;;28.53;34.88;97112.00;10247506;28;20062;-58
2022/08/16 09:16:37;;;;;;;7.72;5.10;;;;;;;28.62;35.59;97111.25;10247585;28;20068;-57
2022/08/16 09:21:36;;;;;;;5.35;4.53;;;;;;;28.78;35.76;97103.66;10250504;28;20085;-58
2022/08/16 09:26:35;;;;;;;4.82;4.05;;;;;;;28.96;34.94;97109.22;10250298;28;20084;-57
2022/08/16 09:31:34;;;;;;;4.50;3.95;;;;;;;29.05;34.69;97097.72;10249998;28;20105;-58
2022/08/16 09:36:33;;;;;;;5.18;3.80;;;;;;;29.16;34.71;97095.97;10239019;28;20054;-57
2022/08/16 09:41:32;;;;;;;6.30;4.00;;;;;;;29.37;34.86;97107.47;10209533;28;20724;-58
2022/08/16 09:46:31;;;;;;;5.75;4.60;;;;;;;29.57;34.63;97099.50;10226115;28;20143;-58
2022/08/16 09:51:30;;;;;;;8.57;4.60;;;;;;;29.76;33.93;97107.56;10248895;28;20492;-58
2022/08/16 09:56:32;;;;;;;4.53;3.88;;;;;;;29.85;33.31;97104.09;10249536;28;20105;-57
2022/08/16 10:01:31;;;;;;;7.63;4.20;;;;;;;29.98;34.08;97089.66;10248414;28;20077;-57
2022/08/16 10:06:31;;;;;;;6.38;4.78;;;;;;;30.14;34.27;97084.59;10249089;28;20455;-59
2022/08/16 10:16:47;;;;;;;5.37;4.20;;;;;;;30.32;32.50;97077.50;10266897;28;20119;-57
2022/08/16 10:21:48;;;;;;;5.70;4.28;;;;;;;30.52;33.04;97083.75;10248386;28;20073;-57
2022/08/16 10:26:48;;;;;;;5.00;4.50;;;;;;;30.73;33.49;97083.56;10248243;28;20530;-57
2022/08/16 10:31:47;;;;;;;7.30;4.40;;;;;;;30.94;32.81;97077.16;10239960;28;20125;-57
2022/08/16 10:36:47;;;;;;;5.00;4.47;;;;;;;31.10;30.86;97072.06;10219529;28;20053;-57
2022/08/16 10:41:46;;;;;;;6.72;4.65;;;;;;;30.95;31.04;97068.13;10247944;28;20054;-57
2022/08/16 10:46:45;;;;;;;5.68;4.68;;;;;;;30.85;31.01;97078.03;10248349;28;20069;-57
2022/08/16 10:51:44;;;;;;;6.40;3.95;;;;;;;30.31;29.54;97070.47;10248786;28;20081;-58
2022/08/16 10:56:43;;;;;;;6.43;3.67;;;;;;;30.30;28.65;97068.81;10254914;28;20050;-58
2022/08/16 11:01:43;;;;;;;6.20;4.05;;;;;;;30.47;28.55;97064.59;10255529;28;20412;-57
2022/08/16 11:06:42;;;;;;;5.03;3.85;;;;;;;30.68;29.23;97066.22;10256241;28;20081;-57
2022/08/16 11:11:41;;;;;;;5.97;4.80;;;;;;;30.84;29.52;97065.63;10256829;28;20208;-57
2022/08/16 11:16:41;;;;;;;6.70;4.80;;;;;;;30.87;28.49;97060.00;10255408;28;20077;-58
2022/08/16 11:21:42;;;;;;;7.82;5.05;;;;;;;31.10;29.29;97069.38;10255794;28;20069;-58
2022/08/16 11:26:40;;;;;;;7.05;5.03;;;;;;;31.35;28.38;97065.16;10254849;28;20081;-58
2022/08/16 11:31:40;;;;;;;7.20;5.50;;;;;;;31.71;29.49;97049.19;10254564;28;20038;-59
2022/08/16 11:36:39;;;;;;;8.65;5.53;;;;;;;31.99;28.36;97047.31;10254394;28;20078;-57
2022/08/16 11:41:38;;;;;;;6.40;5.28;;;;;;;32.33;28.10;97037.72;10252305;28;20080;-57
2022/08/16 11:46:37;;;;;;;7.40;4.97;;;;;;;32.76;28.24;97034.19;10253749;28;20144;-57
2022/08/16 11:51:38;;;;;;;7.60;5.05;;;;;;;32.96;27.06;97033.97;10254219;28;20096;-57
2022/08/16 11:56:37;;;;;;;6.68;4.68;;;;;;;32.78;25.29;97031.34;10254401;28;20066;-57
2022/08/16 12:01:36;;;;;;;7.80;5.75;;;;;;;32.98;28.04;97021.22;10254721;28;20077;-56
2022/08/16 12:06:35;;;;;;;9.38;6.13;;;;;;;33.40;27.05;97020.41;10255646;28;20531;-57
2022/08/16 12:11:34;;;;;;;7.45;4.80;;;;;;;33.82;24.48;97015.00;10255531;28;20058;-57
2022/08/16 12:16:34;;;;;;;6.68;4.50;;;;;;;33.88;23.56;97014.31;10255146;28;20097;-58
2022/08/16 12:21:33;;;;;;;6.05;4.40;;;;;;;33.98;23.08;97003.41;10256237;28;20511;-55
2022/08/16 12:26:33;;;;;;;7.70;4.35;;;;;;;34.19;23.01;96988.59;10257401;28;20054;-56
2022/08/16 12:31:32;;;;;;;5.22;4.00;;;;;;;34.18;22.11;97003.09;10254369;28;20066;-56
2022/08/16 12:36:34;;;;;;;8.82;5.18;;;;;;;34.36;22.01;96993.00;10245662;28;20097;-57
2022/08/16 12:41:36;;;;;;;6.32;3.78;;;;;;;34.16;20.13;96995.19;10213889;28;20070;-57
2022/08/16 12:46:35;;;;;;;8.07;4.78;;;;;;;34.04;21.50;96989.25;10211104;28;20082;-57
2022/08/16 12:51:40;;;;;;;6.45;3.33;;;;;;;33.80;20.43;97005.41;10211840;28;20023;-57
2022/08/16 12:56:40;;;;;;;6.63;4.05;;;;;;;33.67;20.34;96993.25;10212015;28;20511;-56
2022/08/16 13:01:40;;;;;;;6.47;4.03;;;;;;;33.44;20.36;96981.41;10208688;28;20315;-56
2022/08/16 13:06:40;;;;;;;7.10;4.00;;;;;;;33.75;21.41;96981.69;10207221;28;20182;-57
2022/08/16 13:11:47;;;;;;;8.68;3.90;;;;;;;33.79;20.49;96974.09;10213023;28;20089;-57
2022/08/16 13:16:46;;;;;;;7.03;3.65;;;;;;;33.92;19.88;96976.31;10246967;28;20077;-57
2022/08/16 13:21:45;;;;;;;7.40;4.00;;;;;;;33.73;20.21;96981.00;10249996;28;20045;-57
2022/08/16 13:26:44;;;;;;;6.82;3.65;;;;;;;33.51;21.07;96978.91;10248114;28;20416;-57
2022/08/16 13:31:43;;;;;;;6.53;3.45;;;;;;;33.67;18.84;96974.41;10247896;28;20404;-57
2022/08/16 13:36:42;;;;;;;6.35;4.00;;;;;;;33.87;20.01;96974.13;10246839;28;20054;-57
2022/08/16 13:41:42;;;;;;;7.82;3.63;;;;;;;33.78;19.57;96975.13;10247934;28;20058;-57
2022/08/16 13:46:41;;;;;;;6.40;3.80;;;;;;;33.76;19.60;96982.50;10247288;28;20058;-57
2022/08/16 13:51:40;;;;;;;6.95;3.55;;;;;;;33.83;19.89;96983.53;10246706;28;20062;-57
2022/08/16 13:56:40;;;;;;;5.88;3.80;;;;;;;33.64;19.27;96995.44;10245457;28;20109;-57
2022/08/16 14:01:41;;;;;;;4.55;3.38;;;;;;;33.63;19.25;96999.13;10247648;28;20468;-57
2022/08/16 14:06:40;;;;;;;8.90;4.07;;;;;;;33.39;19.45;96975.69;10248765;28;20496;-57
2022/08/16 14:11:39;;;;;;;7.45;3.60;;;;;;;33.64;19.48;96979.31;10248997;28;20570;-57
2022/08/16 14:16:38;;;;;;;3.95;3.10;;;;;;;33.67;18.70;96974.41;10249034;28;20066;-57
2022/08/16 14:21:37;;;;;;;5.40;3.40;;;;;;;33.85;21.05;96978.81;10249036;28;20039;-57
2022/08/16 14:26:35;;;;;;;6.10;3.80;;;;;;;33.72;21.01;96982.00;10249429;28;20042;-57
2022/08/16 14:31:35;;;;;;;8.18;3.75;;;;;;;33.47;20.39;96978.41;10248032;28;20041;-57
2022/08/16 14:36:34;;;;;;;4.30;3.42;;;;;;;33.17;20.72;96983.34;10237796;28;20543;-57
2022/08/16 14:41:33;;;;;;;4.95;3.42;;;;;;;33.07;19.34;96979.94;10208562;28;20568;-57
2022/08/16 14:46:32;;;;;;;6.18;3.60;;;;;;;33.01;19.70;96977.88;10208167;28;20484;-57
2022/08/16 14:51:31;;;;;;;6.97;3.30;;;;;;;32.98;20.67;96986.28;10223133;28;20416;-57
2022/08/16 14:56:30;;;;;;;5.72;3.50;;;;;;;32.82;20.65;96995.94;10248395;28;20030;-57
2022/08/16 15:01:29;;;;;;;8.63;3.42;;;;;;;32.88;21.03;96993.59;10247921;28;20061;-57
2022/08/16 15:06:29;;;;;;;10.05;3.78;;;;;;;32.92;21.69;96998.50;10248544;28;20072;-57
2022/08/16 15:11:28;;;;;;;9.43;3.70;;;;;;;32.83;21.23;97002.13;10248335;28;20074;-57
2022/08/16 15:16:27;;;;;;;7.28;3.70;;;;;;;32.56;21.12;96995.09;10247689;28;20073;-57
2022/08/16 15:21:28;;;;;;;8.98;3.97;;;;;;;32.43;20.56;96993.66;10247388;28;20070;-57
2022/08/16 15:26:27;;;;;;;6.82;3.45;;;;;;;32.26;20.82;96996.38;10247982;28;20504;-57
2022/08/16 15:31:26;;;;;;;8.70;3.70;;;;;;;32.45;21.35;96996.19;10247095;28;20074;-57
2022/08/16 15:36:25;;;;;;;5.47;3.65;;;;;;;32.52;20.72;96983.78;10247550;28;20129;-56
2022/08/16 15:41:37;;;;;;;6.55;3.97;;;;;;;32.68;22.74;96993.84;10249319;28;20077;-57
2022/08/16 15:46:38;;;;;;;5.05;3.80;;;;;;;32.71;22.14;96987.31;10254148;28;20491;-57
2022/08/16 15:51:37;;;;;;;10.15;4.20;;;;;;;32.71;22.51;96990.81;10253430;28;20078;-57
2022/08/16 15:56:36;;;;;;;5.88;3.90;;;;;;;32.56;22.91;96993.22;10253978;28;20073;-57
2022/08/16 16:01:35;;;;;;;6.50;3.60;;;;;;;32.37;23.12;96988.91;10254627;28;20038;-56
2022/08/16 16:06:34;;;;;;;5.50;3.90;;;;;;;32.10;23.61;96997.09;10252355;28;20041;-57
2022/08/16 16:11:33;;;;;;;8.48;4.25;;;;;;;31.79;24.29;96998.28;10252031;28;20459;-56
2022/08/16 16:16:33;;;;;;;11.20;4.80;;;;;;;31.53;25.15;97000.06;10253248;28;20048;-58
2022/08/16 16:21:32;;;;;;;7.22;4.20;;;;;;;31.04;25.35;97012.84;10252499;28;20472;-56
2022/08/16 16:26:31;;;;;;;9.05;4.25;;;;;;;30.66;25.54;97010.13;10252449;28;20457;-57
2022/08/16 16:31:31;;;;;;;8.07;4.55;;;;;;;30.42;26.51;97023.16;10251685;28;20423;-57
2022/08/16 16:36:33;;;;;;;6.82;4.32;;;;;;;30.26;26.73;97039.78;10249707;28;20082;-57
2022/08/16 16:41:33;;;;;;;7.68;4.50;;;;;;;30.11;27.80;97042.88;10251273;28;20473;-58
2022/08/16 16:46:34;;;;;;;8.82;5.20;;;;;;;29.90;28.54;97047.50;10250697;28;20321;-56
2022/08/16 16:51:36;;;;;;;9.70;4.70;;;;;;;29.57;29.13;97057.56;10249798;28;20078;-56
2022/08/16 16:56:35;;;;;;;7.90;4.75;;;;;;;29.28;29.68;97065.53;10250431;28;20582;-56
2022/08/16 17:01:44;;;;;;;7.35;4.78;;;;;;;29.08;30.00;97061.88;10250806;28;20468;-56
2022/08/16 17:06:43;;;;;;;6.63;4.55;;;;;;;28.89;31.50;97065.31;10248680;28;20070;-57
2022/08/16 17:11:44;;;;;;;11.27;5.07;;;;;;;28.63;32.35;97068.38;10244245;28;20097;-57
2022/08/16 17:16:43;;;;;;;9.18;5.07;;;;;;;28.41;32.36;97068.53;10249219;28;20516;-57
2022/08/16 17:21:42;;;;;;;10.50;5.40;;;;;;;28.16;32.94;97073.25;10250449;28;20499;-57
2022/08/16 17:26:42;;;;;;;12.23;5.15;;;;;;;27.91;33.50;97084.22;10248919;28;20490;-56
2022/08/16 17:31:41;;;;;;;10.15;5.72;;;;;;;27.69;34.70;97093.13;10248824;28;20073;-57
2022/08/16 17:36:40;;;;;;;8.45;5.15;;;;;;;27.42;35.44;97089.88;10248238;28;20119;-56
2022/08/16 17:41:39;;;;;;;12.40;5.28;;;;;;;27.14;35.76;97096.56;10242863;28;20108;-57
2022/08/16 17:46:38;;;;;;;6.95;4.72;;;;;;;26.85;35.85;97104.13;10249408;28;20034;-57
2022/08/16 17:51:37;;;;;;;7.88;4.32;;;;;;;26.62;35.99;97113.84;10248322;28;20520;-56
2022/08/16 17:56:35;;;;;;;12.27;4.80;;;;;;;26.43;36.63;97118.88;10248160;28;20034;-57
2022/08/16 18:01:35;;;;;;;7.30;4.47;;;;;;;26.25;37.04;97118.44;10248771;28;20045;-57
2022/08/16 18:06:34;;;;;;;7.75;4.45;;;;;;;26.06;37.00;97122.44;10246918;28;20057;-57
2022/08/16 18:11:37;;;;;;;8.48;4.63;;;;;;;25.90;37.87;97135.16;10241752;28;20024;-56
2022/08/16 18:16:36;;;;;;;10.50;6.07;;;;;;;25.66;38.62;97135.16;10249266;28;20074;-56
2022/08/16 18:26:52;;;;;;;8.18;5.45;;;;;;;25.26;39.98;97148.56;10247029;28;20074;-57
2022/08/16 18:31:51;;;;;;;9.57;6.85;;;;;;;25.06;40.92;97160.59;10246851;28;20484;-57
2022/08/16 18:36:50;;;;;;;11.15;5.13;;;;;;;24.84;41.42;97156.72;10235950;28;20410;-57
2022/08/16 18:41:49;;;;;;;7.55;5.40;;;;;;;24.62;41.78;97157.34;10213473;28;20495;-57
2022/08/16 18:46:49;;;;;;;8.05;5.05;;;;;;;24.46;42.08;97164.63;10247062;28;20487;-56
2022/08/16 18:51:49;;;;;;;8.98;5.78;;;;;;;24.31;42.61;97169.16;10246318;28;20484;-56
2022/08/16 18:56:48;;;;;;;9.63;4.90;;;;;;;24.15;43.11;97185.16;10247548;28;20472;-57
2022/08/16 19:01:47;;;;;;;7.68;5.57;;;;;;;24.08;43.65;97183.03;10247420;28;20229;-56
2022/08/16 19:06:46;;;;;;;8.13;6.10;;;;;;;24.03;44.06;97188.63;10247075;28;20074;-56
2022/08/16 19:11:45;;;;;;;8.05;5.18;;;;;;;23.92;44.05;97194.59;10239979;28;20054;-56
2022/08/16 19:16:44;;;;;;;8.55;5.50;;;;;;;23.80;44.71;97200.69;10251600;28;20116;-56
2022/08/16 19:21:43;;;;;;;8.50;6.30;;;;;;;23.72;45.22;97209.09;10255082;28;20389;-56
2022/08/16 19:26:42;;;;;;;9.60;6.13;;;;;;;23.62;46.03;97216.78;10255226;28;20056;-56
2022/08/16 19:31:41;;;;;;;10.88;6.50;;;;;;;23.40;47.13;97219.88;10253386;28;20066;-56
2022/08/16 19:36:40;;;;;;;10.23;6.47;;;;;;;23.25;48.28;97230.56;10241160;28;20078;-56
2022/08/16 19:41:43;;;;;;;8.05;6.20;;;;;;;23.12;49.02;97235.75;10213586;28;20074;-55
2022/08/16 19:46:44;;;;;;;11.00;5.82;;;;;;;22.99;49.61;97230.31;10243654;28;20088;-56
2022/08/16 19:51:44;;;;;;;11.65;6.65;;;;;;;22.86;50.08;97224.03;10252266;28;20081;-56
2022/08/16 19:56:44;;;;;;;8.70;6.00;;;;;;;22.78;50.99;97238.56;10253053;28;20519;-56
2022/08/16 20:01:43;;;;;;;10.25;5.90;;;;;;;22.69;50.79;97231.13;10252847;28;20065;-58
2022/08/16 20:06:43;;;;;;;10.32;6.40;;;;;;;22.59;51.31;97228.19;10251468;28;20042;-56
2022/08/16 20:11:46;;;;;;;10.70;6.60;;;;;;;22.53;51.88;97238.25;10252779;28;20077;-56
2022/08/16 20:16:45;;;;;;;13.75;7.05;;;;;;;22.34;54.21;97241.09;10246301;28;20121;-56
2022/08/16 20:21:45;;;;;;;11.23;7.40;;;;;;;22.29;54.43;97237.88;10251944;28;20076;-57
2022/08/16 20:26:44;;;;;;;11.30;7.68;;;;;;;22.16;55.44;97250.94;10252065;28;20074;-57
2022/08/16 20:31:43;;;;;;;10.40;6.97;;;;;;;22.09;55.94;97249.59;10252876;28;20078;-56
2022/08/16 20:36:42;;;;;;;9.20;6.40;;;;;;;22.06;55.83;97250.59;10239310;28;20086;-57
2022/08/16 20:41:42;;;;;;;12.30;6.38;;;;;;;21.90;56.75;97263.75;10213516;28;20085;-56
2022/08/16 20:46:41;;;;;;;12.45;6.80;;;;;;;21.64;57.50;97264.31;10230014;28;20112;-56
2022/08/16 20:51:40;;;;;;;11.02;6.10;;;;;;;21.53;57.37;97272.81;10252114;28;20207;-57
2022/08/16 20:56:39;;;;;;;10.80;6.28;;;;;;;21.42;57.18;97276.00;10250485;28;20026;-56
2022/08/16 21:01:40;;;;;;;9.32;6.10;;;;;;;21.32;57.49;97266.88;10249463;28;20022;-56
2022/08/16 21:06:40;;;;;;;8.60;6.30;;;;;;;21.31;57.79;97284.50;10248164;28;20065;-56
2022/08/16 21:11:40;;;;;;;11.93;6.25;;;;;;;21.24;58.07;97283.13;10250746;28;20096;-56
2022/08/16 21:16:39;;;;;;;12.27;7.63;;;;;;;21.20;59.05;97285.97;10244926;28;20072;-56
2022/08/16 21:21:38;;;;;;;15.27;8.00;;;;;;;21.09;61.04;97289.13;10250215;28;20109;-58
2022/08/16 21:26:38;;;;;;;12.95;8.07;;;;;;;20.94;61.86;97290.78;10250712;28;20084;-57
2022/08/16 21:31:39;;;;;;;13.25;7.85;;;;;;;20.85;62.73;97296.50;10249262;28;20062;-57
2022/08/16 21:36:38;;;;;;;16.25;8.55;;;;;;;20.73;63.63;97295.31;10238765;28;20109;-57
2022/08/16 21:41:38;;;;;;;13.70;8.07;;;;;;;20.64;64.46;97299.25;10208636;28;20144;-57
2022/08/16 21:46:37;;;;;;;14.85;8.18;;;;;;;20.56;64.92;97304.03;10208949;28;20082;-57
2022/08/16 21:51:37;;;;;;;12.52;8.50;;;;;;;20.50;65.20;97294.66;10240040;28;20472;-57
2022/08/16 21:56:37;;;;;;;10.52;7.43;;;;;;;20.41;66.84;97307.44;10218973;28;20109;-57
2022/08/16 22:01:41;;;;;;;12.98;7.68;;;;;;;20.36;66.93;97293.59;10209388;28;20519;-57
2022/08/16 22:06:40;;;;;;;12.65;7.78;;;;;;;20.29;67.21;97298.28;10208889;28;20070;-57
2022/08/16 22:11:41;;;;;;;12.77;8.07;;;;;;;20.20;67.99;97293.47;10205788;28;20129;-57
2022/08/16 22:16:42;;;;;;;12.13;8.00;;;;;;;20.12;68.72;97288.56;10208003;28;20078;-56
2022/08/16 22:21:41;;;;;;;12.18;7.97;;;;;;;20.05;69.44;97287.13;10230633;28;20121;-57
2022/08/16 22:26:40;;;;;;;11.93;8.35;;;;;;;19.89;69.73;97291.41;10248221;28;20046;-57
2022/08/16 22:31:40;;;;;;;13.15;8.10;;;;;;;19.83;69.77;97293.38;10248469;28;20031;-57
2022/08/16 22:36:39;;;;;;;11.40;8.00;;;;;;;19.81;69.61;97292.59;10237165;28;20085;-56
2022/08/16 22:41:42;;;;;;;14.43;8.73;;;;;;;19.73;70.14;97289.47;10213633;28;20553;-56
2022/08/16 22:46:41;;;;;;;15.93;9.10;;;;;;;19.72;69.93;97286.88;10224863;28;20081;-56
2022/08/16 22:51:40;;;;;;;13.52;8.60;;;;;;;19.66;69.93;97282.75;10237573;28;20069;-56
2022/08/16 22:56:39;;;;;;;16.60;9.18;;;;;;;19.60;70.85;97283.91;10256057;28;20088;-57
2022/08/16 23:01:38;;;;;;;13.70;8.90;;;;;;;19.47;71.65;97287.13;10255802;28;20145;-56
2022/08/16 23:06:37;;;;;;;15.23;8.95;;;;;;;19.35;72.13;97289.34;10254947;28;20088;-56
2022/08/16 23:11:36;;;;;;;17.50;9.95;;;;;;;19.23;73.15;97279.38;10255805;28;20062;-56
2022/08/16 23:16:35;;;;;;;12.95;9.23;;;;;;;19.11;73.69;97280.75;10255922;28;20030;-56